sensor_id;sensor_type;location;lat;lon;timestamp;P1;durP1;ratioP1;P2;durP2;ratioP2
21769;SDS011;11046;49.558;8.674;2023-12-29T00:02:21;10.80;;;5.80;;
21769;SDS011;11046;49.558;8.674;2023-12-29T00:05:22;9.13;;;5.47;;
21769;SDS011;11046;49.558;8.674;2023-12-29T00:08:22;9.50;;;5.93;;
21769;SDS011;11046;49.558;8.674;2023-12-29T00:11:23;9.83;;;5.97;;
21769;SDS011;11046;49.558;8.674;2023-12-29T00:14:24;9.47;;;6.23;;
21769;SDS011;11046;49.558;8.674;2023-12-29T00:17:26;10.50;;;6.60;;
21769;SDS011;11046;49.558;8.674;2023-12-29T00:20:26;10.10;;;6.13;;
21769;SDS011;11046;49.558;8.674;2023-12-29T00:23:31;10.13;;;6.00;;
21769;SDS011;11046;49.558;8.674;2023-12-29T00:26:32;11.27;;;6.03;;
21769;SDS011;11046;49.558;8.674;2023-12-29T00:29:33;11.60;;;6.77;;
21769;SDS011;11046;49.558;8.674;2023-12-29T00:32:34;12.40;;;6.30;;
21769;SDS011;11046;49.558;8.674;2023-12-29T00:35:38;12.20;;;6.60;;
21769;SDS011;11046;49.558;8.674;2023-12-29T00:38:39;11.67;;;5.93;;
21769;SDS011;11046;49.558;8.674;2023-12-29T00:41:40;11.10;;;5.70;;
21769;SDS011;11046;49.558;8.674;2023-12-29T00:44:41;9.93;;;5.57;;
21769;SDS011;11046;49.558;8.674;2023-12-29T00:47:41;9.23;;;5.83;;
21769;SDS011;11046;49.558;8.674;2023-12-29T00:50:42;10.77;;;6.40;;
21769;SDS011;11046;49.558;8.674;2023-12-29T00:53:44;10.70;;;6.20;;
21769;SDS011;11046;49.558;8.674;2023-12-29T00:56:51;10.80;;;5.83;;
21769;SDS011;11046;49.558;8.674;2023-12-29T00:59:51;10.77;;;5.83;;
21769;SDS011;11046;49.558;8.674;2023-12-29T01:02:52;9.43;;;5.87;;
21769;SDS011;11046;49.558;8.674;2023-12-29T01:05:54;9.83;;;6.17;;
21769;SDS011;11046;49.558;8.674;2023-12-29T01:08:55;9.13;;;5.43;;
21769;SDS011;11046;49.558;8.674;2023-12-29T01:11:55;9.97;;;6.50;;
21769;SDS011;11046;49.558;8.674;2023-12-29T01:14:56;11.23;;;6.10;;
21769;SDS011;11046;49.558;8.674;2023-12-29T01:17:56;10.87;;;6.27;;
21769;SDS011;11046;49.558;8.674;2023-12-29T01:20:57;10.27;;;6.00;;
21769;SDS011;11046;49.558;8.674;2023-12-29T01:23:58;11.13;;;6.23;;
21769;SDS011;11046;49.558;8.674;2023-12-29T01:27:00;11.13;;;6.67;;
21769;SDS011;11046;49.558;8.674;2023-12-29T01:30:04;9.30;;;6.00;;
21769;SDS011;11046;49.558;8.674;2023-12-29T01:33:05;11.10;;;6.57;;
21769;SDS011;11046;49.558;8.674;2023-12-29T01:36:06;12.97;;;6.40;;
21769;SDS011;11046;49.558;8.674;2023-12-29T01:39:07;12.13;;;5.87;;
21769;SDS011;11046;49.558;8.674;2023-12-29T01:42:07;11.57;;;6.00;;
21769;SDS011;11046;49.558;8.674;2023-12-29T01:45:14;11.80;;;6.50;;
21769;SDS011;11046;49.558;8.674;2023-12-29T01:48:22;11.67;;;6.77;;
21769;SDS011;11046;49.558;8.674;2023-12-29T01:51:24;11.80;;;6.37;;
21769;SDS011;11046;49.558;8.674;2023-12-29T01:54:31;11.67;;;7.20;;
21769;SDS011;11046;49.558;8.674;2023-12-29T01:57:35;11.63;;;6.73;;
21769;SDS011;11046;49.558;8.674;2023-12-29T02:00:36;10.47;;;6.63;;
21769;SDS011;11046;49.558;8.674;2023-12-29T02:03:37;12.73;;;7.40;;
21769;SDS011;11046;49.558;8.674;2023-12-29T02:06:38;9.93;;;6.20;;
21769;SDS011;11046;49.558;8.674;2023-12-29T02:09:39;11.50;;;6.67;;
21769;SDS011;11046;49.558;8.674;2023-12-29T02:12:44;10.67;;;6.37;;
21769;SDS011;11046;49.558;8.674;2023-12-29T02:15:49;10.07;;;6.07;;
21769;SDS011;11046;49.558;8.674;2023-12-29T02:18:52;9.97;;;5.93;;
21769;SDS011;11046;49.558;8.674;2023-12-29T02:21:54;8.57;;;5.63;;
21769;SDS011;11046;49.558;8.674;2023-12-29T02:24:55;10.93;;;6.20;;
21769;SDS011;11046;49.558;8.674;2023-12-29T02:27:57;10.23;;;6.27;;
21769;SDS011;11046;49.558;8.674;2023-12-29T02:31:06;10.10;;;6.37;;
21769;SDS011;11046;49.558;8.674;2023-12-29T02:34:10;11.90;;;6.47;;
21769;SDS011;11046;49.558;8.674;2023-12-29T02:37:14;11.93;;;6.10;;
21769;SDS011;11046;49.558;8.674;2023-12-29T02:40:15;8.87;;;5.97;;
21769;SDS011;11046;49.558;8.674;2023-12-29T02:43:16;9.00;;;5.53;;
21769;SDS011;11046;49.558;8.674;2023-12-29T02:46:17;10.10;;;5.70;;
21769;SDS011;11046;49.558;8.674;2023-12-29T02:49:18;9.67;;;5.23;;
21769;SDS011;11046;49.558;8.674;2023-12-29T02:52:19;8.53;;;5.33;;
21769;SDS011;11046;49.558;8.674;2023-12-29T02:55:20;7.73;;;5.27;;
21769;SDS011;11046;49.558;8.674;2023-12-29T02:58:20;8.10;;;4.90;;
21769;SDS011;11046;49.558;8.674;2023-12-29T03:01:23;11.43;;;5.23;;
21769;SDS011;11046;49.558;8.674;2023-12-29T03:04:23;9.57;;;5.33;;
21769;SDS011;11046;49.558;8.674;2023-12-29T03:07:24;8.50;;;5.23;;
21769;SDS011;11046;49.558;8.674;2023-12-29T03:10:25;10.10;;;4.57;;
21769;SDS011;11046;49.558;8.674;2023-12-29T03:13:25;8.07;;;4.60;;
21769;SDS011;11046;49.558;8.674;2023-12-29T03:16:26;9.13;;;4.67;;
21769;SDS011;11046;49.558;8.674;2023-12-29T03:19:26;7.93;;;4.70;;
21769;SDS011;11046;49.558;8.674;2023-12-29T03:22:29;8.27;;;4.50;;
21769;SDS011;11046;49.558;8.674;2023-12-29T03:25:30;8.83;;;4.60;;
21769;SDS011;11046;49.558;8.674;2023-12-29T03:28:31;7.53;;;4.17;;
21769;SDS011;11046;49.558;8.674;2023-12-29T03:31:32;8.57;;;4.13;;
21769;SDS011;11046;49.558;8.674;2023-12-29T03:34:33;6.37;;;3.70;;
21769;SDS011;11046;49.558;8.674;2023-12-29T03:37:33;7.93;;;4.40;;
21769;SDS011;11046;49.558;8.674;2023-12-29T03:40:34;9.17;;;3.60;;
21769;SDS011;11046;49.558;8.674;2023-12-29T03:43:34;5.03;;;3.50;;
21769;SDS011;11046;49.558;8.674;2023-12-29T03:46:35;5.83;;;3.70;;
21769;SDS011;11046;49.558;8.674;2023-12-29T03:49:36;5.63;;;3.50;;
21769;SDS011;11046;49.558;8.674;2023-12-29T03:52:36;5.80;;;3.70;;
21769;SDS011;11046;49.558;8.674;2023-12-29T03:55:37;6.30;;;3.90;;
21769;SDS011;11046;49.558;8.674;2023-12-29T03:58:38;5.23;;;3.40;;
21769;SDS011;11046;49.558;8.674;2023-12-29T04:01:39;5.60;;;3.43;;
21769;SDS011;11046;49.558;8.674;2023-12-29T04:04:39;9.07;;;3.50;;
21769;SDS011;11046;49.558;8.674;2023-12-29T04:07:41;7.13;;;3.50;;
21769;SDS011;11046;49.558;8.674;2023-12-29T04:10:41;7.83;;;3.43;;
21769;SDS011;11046;49.558;8.674;2023-12-29T04:13:45;6.90;;;4.00;;
21769;SDS011;11046;49.558;8.674;2023-12-29T04:16:49;6.27;;;3.80;;
21769;SDS011;11046;49.558;8.674;2023-12-29T04:19:50;5.97;;;4.20;;
21769;SDS011;11046;49.558;8.674;2023-12-29T04:22:50;6.67;;;4.00;;
21769;SDS011;11046;49.558;8.674;2023-12-29T04:25:51;7.67;;;4.00;;
21769;SDS011;11046;49.558;8.674;2023-12-29T04:28:52;6.53;;;4.60;;
21769;SDS011;11046;49.558;8.674;2023-12-29T04:31:53;7.77;;;4.40;;
21769;SDS011;11046;49.558;8.674;2023-12-29T04:34:53;6.40;;;4.17;;
21769;SDS011;11046;49.558;8.674;2023-12-29T04:37:54;7.50;;;4.70;;
21769;SDS011;11046;49.558;8.674;2023-12-29T04:40:54;7.27;;;4.33;;
21769;SDS011;11046;49.558;8.674;2023-12-29T04:43:56;7.43;;;4.43;;
21769;SDS011;11046;49.558;8.674;2023-12-29T04:46:56;7.53;;;5.00;;
21769;SDS011;11046;49.558;8.674;2023-12-29T04:49:57;7.90;;;4.90;;
21769;SDS011;11046;49.558;8.674;2023-12-29T04:52:57;7.50;;;4.87;;
21769;SDS011;11046;49.558;8.674;2023-12-29T04:55:58;11.03;;;4.77;;
21769;SDS011;11046;49.558;8.674;2023-12-29T04:58:58;9.23;;;5.03;;
21769;SDS011;11046;49.558;8.674;2023-12-29T05:02:00;8.57;;;4.80;;
21769;SDS011;11046;49.558;8.674;2023-12-29T05:05:00;5.87;;;4.40;;
21769;SDS011;11046;49.558;8.674;2023-12-29T05:08:01;8.00;;;4.80;;
21769;SDS011;11046;49.558;8.674;2023-12-29T05:11:02;7.93;;;4.90;;
21769;SDS011;11046;49.558;8.674;2023-12-29T05:14:02;7.47;;;5.17;;
21769;SDS011;11046;49.558;8.674;2023-12-29T05:17:03;7.53;;;4.90;;
21769;SDS011;11046;49.558;8.674;2023-12-29T05:20:04;7.20;;;4.53;;
21769;SDS011;11046;49.558;8.674;2023-12-29T05:23:08;8.67;;;5.00;;
21769;SDS011;11046;49.558;8.674;2023-12-29T05:26:09;11.40;;;4.93;;
21769;SDS011;11046;49.558;8.674;2023-12-29T05:29:10;8.27;;;5.00;;
21769;SDS011;11046;49.558;8.674;2023-12-29T05:32:10;9.77;;;4.73;;
21769;SDS011;11046;49.558;8.674;2023-12-29T05:35:11;10.83;;;5.00;;
21769;SDS011;11046;49.558;8.674;2023-12-29T05:38:11;9.73;;;5.27;;
21769;SDS011;11046;49.558;8.674;2023-12-29T05:41:14;9.57;;;5.17;;
21769;SDS011;11046;49.558;8.674;2023-12-29T05:44:15;7.97;;;5.00;;
21769;SDS011;11046;49.558;8.674;2023-12-29T05:47:21;10.53;;;5.50;;
21769;SDS011;11046;49.558;8.674;2023-12-29T05:50:24;14.23;;;5.50;;
21769;SDS011;11046;49.558;8.674;2023-12-29T05:53:25;7.90;;;4.97;;
21769;SDS011;11046;49.558;8.674;2023-12-29T05:56:35;7.87;;;5.07;;
21769;SDS011;11046;49.558;8.674;2023-12-29T05:59:39;7.80;;;5.03;;
21769;SDS011;11046;49.558;8.674;2023-12-29T06:02:43;8.60;;;4.67;;
21769;SDS011;11046;49.558;8.674;2023-12-29T06:05:51;8.10;;;4.60;;
21769;SDS011;11046;49.558;8.674;2023-12-29T06:08:53;7.00;;;4.53;;
21769;SDS011;11046;49.558;8.674;2023-12-29T06:11:54;7.33;;;4.70;;
21769;SDS011;11046;49.558;8.674;2023-12-29T06:14:57;6.90;;;4.27;;
21769;SDS011;11046;49.558;8.674;2023-12-29T06:17:58;6.10;;;3.90;;
21769;SDS011;11046;49.558;8.674;2023-12-29T06:21:04;8.10;;;4.80;;
21769;SDS011;11046;49.558;8.674;2023-12-29T06:24:05;7.77;;;4.57;;
21769;SDS011;11046;49.558;8.674;2023-12-29T06:27:08;7.07;;;3.97;;
21769;SDS011;11046;49.558;8.674;2023-12-29T06:30:12;5.07;;;3.80;;
21769;SDS011;11046;49.558;8.674;2023-12-29T06:33:13;6.37;;;4.30;;
21769;SDS011;11046;49.558;8.674;2023-12-29T06:36:13;6.27;;;3.90;;
21769;SDS011;11046;49.558;8.674;2023-12-29T06:39:16;5.77;;;4.30;;
21769;SDS011;11046;49.558;8.674;2023-12-29T06:42:26;9.57;;;4.43;;
21769;SDS011;11046;49.558;8.674;2023-12-29T06:45:28;8.43;;;4.50;;
21769;SDS011;11046;49.558;8.674;2023-12-29T06:48:34;6.70;;;4.23;;
21769;SDS011;11046;49.558;8.674;2023-12-29T06:51:45;6.40;;;4.40;;
21769;SDS011;11046;49.558;8.674;2023-12-29T06:54:53;6.83;;;4.37;;
21769;SDS011;11046;49.558;8.674;2023-12-29T06:57:59;6.30;;;4.57;;
21769;SDS011;11046;49.558;8.674;2023-12-29T07:01:09;5.90;;;4.07;;
21769;SDS011;11046;49.558;8.674;2023-12-29T07:04:18;6.93;;;3.87;;
21769;SDS011;11046;49.558;8.674;2023-12-29T07:07:27;6.00;;;4.03;;
21769;SDS011;11046;49.558;8.674;2023-12-29T07:10:30;9.13;;;4.30;;
21769;SDS011;11046;49.558;8.674;2023-12-29T07:13:31;6.53;;;4.10;;
21769;SDS011;11046;49.558;8.674;2023-12-29T07:16:32;6.07;;;3.67;;
21769;SDS011;11046;49.558;8.674;2023-12-29T07:19:33;6.20;;;3.90;;
21769;SDS011;11046;49.558;8.674;2023-12-29T07:22:39;6.97;;;3.50;;
21769;SDS011;11046;49.558;8.674;2023-12-29T07:25:40;5.53;;;3.70;;
21769;SDS011;11046;49.558;8.674;2023-12-29T07:28:40;6.73;;;3.73;;
21769;SDS011;11046;49.558;8.674;2023-12-29T07:31:41;5.63;;;3.70;;
21769;SDS011;11046;49.558;8.674;2023-12-29T07:34:49;5.40;;;3.60;;
21769;SDS011;11046;49.558;8.674;2023-12-29T07:37:50;6.87;;;3.90;;
21769;SDS011;11046;49.558;8.674;2023-12-29T07:40:50;7.23;;;3.70;;
21769;SDS011;11046;49.558;8.674;2023-12-29T07:43:51;6.73;;;4.27;;
21769;SDS011;11046;49.558;8.674;2023-12-29T07:46:52;5.73;;;3.73;;
21769;SDS011;11046;49.558;8.674;2023-12-29T07:49:52;5.37;;;3.47;;
21769;SDS011;11046;49.558;8.674;2023-12-29T07:52:56;5.63;;;3.53;;
21769;SDS011;11046;49.558;8.674;2023-12-29T07:55:56;6.70;;;3.83;;
21769;SDS011;11046;49.558;8.674;2023-12-29T07:58:57;6.47;;;3.80;;
21769;SDS011;11046;49.558;8.674;2023-12-29T08:01:57;7.67;;;4.20;;
21769;SDS011;11046;49.558;8.674;2023-12-29T08:04:58;6.87;;;4.23;;
21769;SDS011;11046;49.558;8.674;2023-12-29T08:07:58;7.87;;;4.37;;
21769;SDS011;11046;49.558;8.674;2023-12-29T08:10:59;7.20;;;4.10;;
21769;SDS011;11046;49.558;8.674;2023-12-29T08:14:03;7.53;;;4.17;;
21769;SDS011;11046;49.558;8.674;2023-12-29T08:17:03;7.57;;;4.27;;
21769;SDS011;11046;49.558;8.674;2023-12-29T08:20:05;6.43;;;4.20;;
21769;SDS011;11046;49.558;8.674;2023-12-29T08:23:06;6.60;;;4.10;;
21769;SDS011;11046;49.558;8.674;2023-12-29T08:26:06;7.53;;;4.20;;
21769;SDS011;11046;49.558;8.674;2023-12-29T08:29:07;7.87;;;3.90;;
21769;SDS011;11046;49.558;8.674;2023-12-29T08:32:08;6.77;;;3.73;;
21769;SDS011;11046;49.558;8.674;2023-12-29T08:35:08;7.67;;;4.00;;
21769;SDS011;11046;49.558;8.674;2023-12-29T08:38:09;6.37;;;3.63;;
21769;SDS011;11046;49.558;8.674;2023-12-29T08:41:16;5.23;;;3.40;;
21769;SDS011;11046;49.558;8.674;2023-12-29T08:44:18;5.57;;;3.20;;
21769;SDS011;11046;49.558;8.674;2023-12-29T08:47:18;5.53;;;3.40;;
21769;SDS011;11046;49.558;8.674;2023-12-29T08:50:19;4.77;;;3.23;;
21769;SDS011;11046;49.558;8.674;2023-12-29T08:53:20;6.97;;;3.77;;
21769;SDS011;11046;49.558;8.674;2023-12-29T08:56:20;5.63;;;3.20;;
21769;SDS011;11046;49.558;8.674;2023-12-29T08:59:21;4.80;;;2.83;;
21769;SDS011;11046;49.558;8.674;2023-12-29T09:02:22;5.17;;;3.00;;
21769;SDS011;11046;49.558;8.674;2023-12-29T09:05:22;6.77;;;2.90;;
21769;SDS011;11046;49.558;8.674;2023-12-29T09:08:23;5.47;;;3.20;;
21769;SDS011;11046;49.558;8.674;2023-12-29T09:11:24;4.70;;;3.30;;
21769;SDS011;11046;49.558;8.674;2023-12-29T09:14:27;4.20;;;2.93;;
21769;SDS011;11046;49.558;8.674;2023-12-29T09:17:31;4.87;;;2.60;;
21769;SDS011;11046;49.558;8.674;2023-12-29T09:20:31;4.73;;;3.10;;
21769;SDS011;11046;49.558;8.674;2023-12-29T09:23:32;4.47;;;3.00;;
21769;SDS011;11046;49.558;8.674;2023-12-29T09:26:33;5.53;;;3.20;;
21769;SDS011;11046;49.558;8.674;2023-12-29T09:29:34;5.07;;;2.93;;
21769;SDS011;11046;49.558;8.674;2023-12-29T09:32:35;5.63;;;3.83;;
21769;SDS011;11046;49.558;8.674;2023-12-29T09:35:35;5.73;;;3.77;;
21769;SDS011;11046;49.558;8.674;2023-12-29T09:38:39;5.63;;;3.27;;
21769;SDS011;11046;49.558;8.674;2023-12-29T09:41:42;5.20;;;3.60;;
21769;SDS011;11046;49.558;8.674;2023-12-29T09:44:49;6.40;;;3.53;;
21769;SDS011;11046;49.558;8.674;2023-12-29T09:47:53;5.10;;;3.57;;
21769;SDS011;11046;49.558;8.674;2023-12-29T09:50:56;6.60;;;3.90;;
21769;SDS011;11046;49.558;8.674;2023-12-29T09:53:57;5.57;;;3.70;;
21769;SDS011;11046;49.558;8.674;2023-12-29T09:56:59;7.90;;;3.73;;
21769;SDS011;11046;49.558;8.674;2023-12-29T10:00:00;5.00;;;3.27;;
21769;SDS011;11046;49.558;8.674;2023-12-29T10:03:10;4.57;;;3.07;;
21769;SDS011;11046;49.558;8.674;2023-12-29T10:06:11;4.60;;;3.43;;
21769;SDS011;11046;49.558;8.674;2023-12-29T10:09:17;4.50;;;3.07;;
21769;SDS011;11046;49.558;8.674;2023-12-29T10:12:20;5.83;;;2.87;;
21769;SDS011;11046;49.558;8.674;2023-12-29T10:15:28;3.83;;;2.60;;
21769;SDS011;11046;49.558;8.674;2023-12-29T10:18:53;4.70;;;2.70;;
21769;SDS011;11046;49.558;8.674;2023-12-29T10:22:15;4.33;;;2.90;;
21769;SDS011;11046;49.558;8.674;2023-12-29T10:25:22;6.17;;;3.33;;
21769;SDS011;11046;49.558;8.674;2023-12-29T10:28:31;5.10;;;3.10;;
21769;SDS011;11046;49.558;8.674;2023-12-29T10:31:32;6.07;;;3.30;;
21769;SDS011;11046;49.558;8.674;2023-12-29T10:34:33;5.30;;;3.00;;
21769;SDS011;11046;49.558;8.674;2023-12-29T10:37:33;5.30;;;3.27;;
21769;SDS011;11046;49.558;8.674;2023-12-29T10:40:34;4.87;;;3.07;;
21769;SDS011;11046;49.558;8.674;2023-12-29T10:43:37;5.33;;;3.17;;
21769;SDS011;11046;49.558;8.674;2023-12-29T10:46:38;6.27;;;3.60;;
21769;SDS011;11046;49.558;8.674;2023-12-29T10:49:39;5.80;;;3.10;;
21769;SDS011;11046;49.558;8.674;2023-12-29T10:52:41;4.63;;;3.10;;
21769;SDS011;11046;49.558;8.674;2023-12-29T10:55:42;4.63;;;2.93;;
21769;SDS011;11046;49.558;8.674;2023-12-29T10:58:43;4.80;;;3.27;;
21769;SDS011;11046;49.558;8.674;2023-12-29T11:01:44;5.60;;;3.07;;
21769;SDS011;11046;49.558;8.674;2023-12-29T11:04:48;4.20;;;2.63;;
21769;SDS011;11046;49.558;8.674;2023-12-29T11:07:55;4.10;;;2.40;;
21769;SDS011;11046;49.558;8.674;2023-12-29T11:10:55;6.13;;;3.43;;
21769;SDS011;11046;49.558;8.674;2023-12-29T11:13:56;6.93;;;2.70;;
21769;SDS011;11046;49.558;8.674;2023-12-29T11:16:59;4.67;;;2.70;;
21769;SDS011;11046;49.558;8.674;2023-12-29T11:20:01;5.33;;;2.97;;
21769;SDS011;11046;49.558;8.674;2023-12-29T11:23:06;5.47;;;2.80;;
21769;SDS011;11046;49.558;8.674;2023-12-29T11:26:08;4.20;;;2.80;;
21769;SDS011;11046;49.558;8.674;2023-12-29T11:29:09;4.77;;;2.90;;
21769;SDS011;11046;49.558;8.674;2023-12-29T11:32:11;3.57;;;2.47;;
21769;SDS011;11046;49.558;8.674;2023-12-29T11:38:38;3.57;;;2.37;;
21769;SDS011;11046;49.558;8.674;2023-12-29T11:42:21;5.03;;;2.43;;
21769;SDS011;11046;49.558;8.674;2023-12-29T11:45:31;9.50;;;3.03;;
21769;SDS011;11046;49.558;8.674;2023-12-29T11:51:59;3.00;;;2.13;;
21769;SDS011;11046;49.558;8.674;2023-12-29T11:55:10;4.73;;;2.00;;
21769;SDS011;11046;49.558;8.674;2023-12-29T11:58:25;4.37;;;1.80;;
21769;SDS011;11046;49.558;8.674;2023-12-29T12:01:34;4.30;;;1.57;;
21769;SDS011;11046;49.558;8.674;2023-12-29T12:10:50;3.97;;;1.40;;
21769;SDS011;11046;49.558;8.674;2023-12-29T12:13:51;2.50;;;1.70;;
21769;SDS011;11046;49.558;8.674;2023-12-29T12:16:51;3.27;;;1.40;;
21769;SDS011;11046;49.558;8.674;2023-12-29T12:20:00;4.30;;;1.63;;
21769;SDS011;11046;49.558;8.674;2023-12-29T12:23:16;3.10;;;1.50;;
21769;SDS011;11046;49.558;8.674;2023-12-29T12:26:18;19.87;;;9.43;;
21769;SDS011;11046;49.558;8.674;2023-12-29T12:29:21;6.23;;;2.60;;
21769;SDS011;11046;49.558;8.674;2023-12-29T12:32:22;3.90;;;2.20;;
21769;SDS011;11046;49.558;8.674;2023-12-29T12:35:29;4.67;;;1.80;;
21769;SDS011;11046;49.558;8.674;2023-12-29T12:38:40;2.20;;;1.53;;
21769;SDS011;11046;49.558;8.674;2023-12-29T12:41:54;3.73;;;1.73;;
21769;SDS011;11046;49.558;8.674;2023-12-29T12:45:03;2.83;;;1.50;;
21769;SDS011;11046;49.558;8.674;2023-12-29T12:51:41;3.47;;;1.60;;
21769;SDS011;11046;49.558;8.674;2023-12-29T12:54:46;3.53;;;2.00;;
21769;SDS011;11046;49.558;8.674;2023-12-29T12:57:48;3.00;;;1.40;;
21769;SDS011;11046;49.558;8.674;2023-12-29T13:00:56;1.87;;;1.40;;
21769;SDS011;11046;49.558;8.674;2023-12-29T13:04:04;4.20;;;1.63;;
21769;SDS011;11046;49.558;8.674;2023-12-29T13:07:06;1.40;;;1.20;;
21769;SDS011;11046;49.558;8.674;2023-12-29T13:10:09;3.23;;;1.50;;
21769;SDS011;11046;49.558;8.674;2023-12-29T13:13:10;3.37;;;1.60;;
21769;SDS011;11046;49.558;8.674;2023-12-29T13:16:14;2.77;;;1.77;;
21769;SDS011;11046;49.558;8.674;2023-12-29T13:19:20;2.73;;;1.50;;
21769;SDS011;11046;49.558;8.674;2023-12-29T13:22:23;1.83;;;1.33;;
21769;SDS011;11046;49.558;8.674;2023-12-29T13:25:26;2.47;;;1.50;;
21769;SDS011;11046;49.558;8.674;2023-12-29T13:28:31;4.43;;;1.80;;
21769;SDS011;11046;49.558;8.674;2023-12-29T13:31:35;6.50;;;1.97;;
21769;SDS011;11046;49.558;8.674;2023-12-29T13:41:19;5.73;;;2.53;;
21769;SDS011;11046;49.558;8.674;2023-12-29T13:44:25;2.97;;;2.20;;
21769;SDS011;11046;49.558;8.674;2023-12-29T13:47:28;3.70;;;2.60;;
21769;SDS011;11046;49.558;8.674;2023-12-29T13:50:30;6.13;;;2.40;;
21769;SDS011;11046;49.558;8.674;2023-12-29T13:53:31;3.00;;;2.30;;
21769;SDS011;11046;49.558;8.674;2023-12-29T13:56:33;5.43;;;2.20;;
21769;SDS011;11046;49.558;8.674;2023-12-29T13:59:33;4.60;;;1.87;;
21769;SDS011;11046;49.558;8.674;2023-12-29T14:02:34;4.67;;;2.17;;
21769;SDS011;11046;49.558;8.674;2023-12-29T14:08:51;4.87;;;2.23;;
21769;SDS011;11046;49.558;8.674;2023-12-29T14:11:51;3.10;;;2.20;;
21769;SDS011;11046;49.558;8.674;2023-12-29T14:15:02;2.83;;;1.90;;
21769;SDS011;11046;49.558;8.674;2023-12-29T14:18:06;4.77;;;1.90;;
21769;SDS011;11046;49.558;8.674;2023-12-29T14:21:28;2.60;;;1.80;;
21769;SDS011;11046;49.558;8.674;2023-12-29T14:24:30;4.13;;;1.60;;
21769;SDS011;11046;49.558;8.674;2023-12-29T14:27:30;3.70;;;1.90;;
21769;SDS011;11046;49.558;8.674;2023-12-29T14:30:31;2.70;;;2.10;;
21769;SDS011;11046;49.558;8.674;2023-12-29T14:33:33;4.07;;;1.90;;
21769;SDS011;11046;49.558;8.674;2023-12-29T14:36:40;3.43;;;1.50;;
21769;SDS011;11046;49.558;8.674;2023-12-29T14:39:46;2.37;;;1.70;;
21769;SDS011;11046;49.558;8.674;2023-12-29T14:42:52;3.10;;;1.53;;
21769;SDS011;11046;49.558;8.674;2023-12-29T14:45:56;4.10;;;1.90;;
21769;SDS011;11046;49.558;8.674;2023-12-29T14:48:57;5.70;;;2.10;;
21769;SDS011;11046;49.558;8.674;2023-12-29T14:52:01;3.87;;;2.00;;
21769;SDS011;11046;49.558;8.674;2023-12-29T14:55:02;2.57;;;1.80;;
21769;SDS011;11046;49.558;8.674;2023-12-29T14:58:03;2.40;;;1.73;;
21769;SDS011;11046;49.558;8.674;2023-12-29T15:01:06;3.83;;;2.00;;
21769;SDS011;11046;49.558;8.674;2023-12-29T15:04:10;3.20;;;1.83;;
21769;SDS011;11046;49.558;8.674;2023-12-29T15:07:16;3.27;;;1.83;;
21769;SDS011;11046;49.558;8.674;2023-12-29T15:10:18;2.57;;;1.90;;
21769;SDS011;11046;49.558;8.674;2023-12-29T15:13:21;3.20;;;2.20;;
21769;SDS011;11046;49.558;8.674;2023-12-29T15:16:22;2.70;;;1.70;;
21769;SDS011;11046;49.558;8.674;2023-12-29T15:19:25;2.57;;;1.70;;
21769;SDS011;11046;49.558;8.674;2023-12-29T15:22:29;2.77;;;1.77;;
21769;SDS011;11046;49.558;8.674;2023-12-29T15:25:30;3.40;;;2.00;;
21769;SDS011;11046;49.558;8.674;2023-12-29T15:28:30;3.40;;;1.70;;
21769;SDS011;11046;49.558;8.674;2023-12-29T15:31:31;4.10;;;1.80;;
21769;SDS011;11046;49.558;8.674;2023-12-29T15:34:31;3.73;;;1.93;;
21769;SDS011;11046;49.558;8.674;2023-12-29T15:37:33;2.73;;;1.90;;
21769;SDS011;11046;49.558;8.674;2023-12-29T15:40:33;7.00;;;2.60;;
21769;SDS011;11046;49.558;8.674;2023-12-29T15:43:34;2.57;;;1.90;;
21769;SDS011;11046;49.558;8.674;2023-12-29T15:46:34;4.00;;;2.23;;
21769;SDS011;11046;49.558;8.674;2023-12-29T15:49:38;5.63;;;2.37;;
21769;SDS011;11046;49.558;8.674;2023-12-29T15:52:39;2.80;;;1.80;;
21769;SDS011;11046;49.558;8.674;2023-12-29T15:55:40;4.03;;;1.87;;
21769;SDS011;11046;49.558;8.674;2023-12-29T15:58:41;4.23;;;1.90;;
21769;SDS011;11046;49.558;8.674;2023-12-29T16:01:44;3.53;;;1.80;;
21769;SDS011;11046;49.558;8.674;2023-12-29T16:04:48;3.47;;;2.33;;
21769;SDS011;11046;49.558;8.674;2023-12-29T16:07:48;4.13;;;2.07;;
21769;SDS011;11046;49.558;8.674;2023-12-29T16:10:49;3.80;;;2.03;;
21769;SDS011;11046;49.558;8.674;2023-12-29T16:13:52;3.83;;;2.00;;
21769;SDS011;11046;49.558;8.674;2023-12-29T16:16:53;4.03;;;1.90;;
21769;SDS011;11046;49.558;8.674;2023-12-29T16:19:53;4.60;;;2.20;;
21769;SDS011;11046;49.558;8.674;2023-12-29T16:22:57;5.13;;;2.00;;
21769;SDS011;11046;49.558;8.674;2023-12-29T16:25:57;5.23;;;2.53;;
21769;SDS011;11046;49.558;8.674;2023-12-29T16:29:00;9.90;;;2.50;;
21769;SDS011;11046;49.558;8.674;2023-12-29T16:32:00;3.03;;;2.27;;
21769;SDS011;11046;49.558;8.674;2023-12-29T16:35:01;5.23;;;2.50;;
21769;SDS011;11046;49.558;8.674;2023-12-29T16:38:04;2.70;;;2.03;;
21769;SDS011;11046;49.558;8.674;2023-12-29T16:41:06;4.37;;;2.07;;
21769;SDS011;11046;49.558;8.674;2023-12-29T16:44:07;5.63;;;2.30;;
21769;SDS011;11046;49.558;8.674;2023-12-29T16:47:07;5.53;;;2.30;;
21769;SDS011;11046;49.558;8.674;2023-12-29T16:50:08;3.83;;;2.30;;
21769;SDS011;11046;49.558;8.674;2023-12-29T16:53:09;4.07;;;2.03;;
21769;SDS011;11046;49.558;8.674;2023-12-29T16:56:09;6.37;;;2.60;;
21769;SDS011;11046;49.558;8.674;2023-12-29T16:59:10;6.33;;;2.37;;
21769;SDS011;11046;49.558;8.674;2023-12-29T17:02:11;3.60;;;2.00;;
21769;SDS011;11046;49.558;8.674;2023-12-29T17:05:12;4.97;;;2.00;;
21769;SDS011;11046;49.558;8.674;2023-12-29T17:08:15;6.03;;;2.70;;
21769;SDS011;11046;49.558;8.674;2023-12-29T17:11:15;6.80;;;2.63;;
21769;SDS011;11046;49.558;8.674;2023-12-29T17:14:16;5.57;;;2.50;;
21769;SDS011;11046;49.558;8.674;2023-12-29T17:17:17;3.93;;;2.10;;
21769;SDS011;11046;49.558;8.674;2023-12-29T17:20:17;4.60;;;1.80;;
21769;SDS011;11046;49.558;8.674;2023-12-29T17:23:18;7.13;;;2.27;;
21769;SDS011;11046;49.558;8.674;2023-12-29T17:26:18;2.53;;;1.80;;
21769;SDS011;11046;49.558;8.674;2023-12-29T17:29:22;3.50;;;2.10;;
21769;SDS011;11046;49.558;8.674;2023-12-29T17:32:22;3.77;;;2.00;;
21769;SDS011;11046;49.558;8.674;2023-12-29T17:35:23;3.30;;;2.17;;
21769;SDS011;11046;49.558;8.674;2023-12-29T17:38:26;7.77;;;2.30;;
21769;SDS011;11046;49.558;8.674;2023-12-29T17:41:27;3.90;;;2.30;;
21769;SDS011;11046;49.558;8.674;2023-12-29T17:44:27;3.83;;;2.23;;
21769;SDS011;11046;49.558;8.674;2023-12-29T17:47:28;5.00;;;2.43;;
21769;SDS011;11046;49.558;8.674;2023-12-29T17:50:28;3.00;;;2.10;;
21769;SDS011;11046;49.558;8.674;2023-12-29T17:53:32;5.03;;;2.30;;
21769;SDS011;11046;49.558;8.674;2023-12-29T17:56:32;4.27;;;2.60;;
21769;SDS011;11046;49.558;8.674;2023-12-29T17:59:34;5.37;;;2.30;;
21769;SDS011;11046;49.558;8.674;2023-12-29T18:02:34;6.70;;;2.57;;
21769;SDS011;11046;49.558;8.674;2023-12-29T18:05:35;4.77;;;2.50;;
21769;SDS011;11046;49.558;8.674;2023-12-29T18:08:36;5.47;;;2.60;;
21769;SDS011;11046;49.558;8.674;2023-12-29T18:11:37;4.63;;;2.67;;
21769;SDS011;11046;49.558;8.674;2023-12-29T18:14:38;5.50;;;2.90;;
21769;SDS011;11046;49.558;8.674;2023-12-29T18:17:40;5.50;;;2.63;;
21769;SDS011;11046;49.558;8.674;2023-12-29T18:20:41;4.93;;;2.83;;
21769;SDS011;11046;49.558;8.674;2023-12-29T18:23:42;7.37;;;3.43;;
21769;SDS011;11046;49.558;8.674;2023-12-29T18:26:42;6.10;;;3.23;;
21769;SDS011;11046;49.558;8.674;2023-12-29T18:29:43;8.07;;;3.60;;
21769;SDS011;11046;49.558;8.674;2023-12-29T18:32:46;8.93;;;5.17;;
21769;SDS011;11046;49.558;8.674;2023-12-29T18:35:47;4.33;;;2.80;;
21769;SDS011;11046;49.558;8.674;2023-12-29T18:38:47;4.67;;;2.70;;
21769;SDS011;11046;49.558;8.674;2023-12-29T18:41:48;6.03;;;2.77;;
21769;SDS011;11046;49.558;8.674;2023-12-29T18:44:48;4.77;;;2.60;;